Love Boat — OT3861 — position and weather

sailwx.info

Track history (hours):
 
Tides and Currents Weather Stations Pressure Air Temp Water Temp Dewpoint Dewpoint Depression Visibility Wind Speed Wind Dir Waves Ship Positions

Love Boat

Last reported at 2018-Apr-16 17:46 UTC. Time now 2018-Apr-21 09:54 UTC.
Position N 50°28' E 007°21'.

Length 110 m.

Type: Ship. MMSI: 205386190.

Date/timePositionNaut miles runAvg speedWind from/ knotsBaromVisibWave heightAir tempDewpointWater temp
2018-Apr-16 17:46N 50°28' E 007°21'2 5.9
2018-Apr-16 17:30N 50°29' E 007°20'3 6.1
2018-Apr-16 16:59N 50°32' E 007°17'3 5.8
2018-Apr-16 16:26N 50°35' E 007°14'2 5.9
2018-Apr-16 16:00N 50°37' E 007°13'3 6.0
2018-Apr-16 15:30N 50°40' E 007°12'3 6.2
2018-Apr-16 15:00N 50°43' E 007°10'3 5.9
2018-Apr-16 14:30N 50°45' E 007°06'3 6.0
2018-Apr-16 14:00N 50°47' E 007°03'3 5.7
2018-Apr-16 13:30N 50°49' E 007°01'2 3.6
2018-Apr-16 13:00N 50°51' E 007°00'3 5.7
2018-Apr-16 12:30N 50°53' E 007°03'3 5.3
2018-Apr-16 12:00N 50°54' E 006°59'3 6.1
2018-Apr-16 11:30N 50°57' E 006°58'2 4.4
2018-Apr-16 11:00N 50°59' E 006°58'3 5.6
2018-Apr-16 10:30N 51°02' E 006°57'3 6.0
2018-Apr-16 10:00N 51°04' E 006°54'2 3.7
2018-Apr-16 09:30N 51°06' E 006°52'2 4.8
2018-Apr-16 09:00N 51°08' E 006°51'2 3.4
2018-Apr-16 08:30N 51°09' E 006°50'1 2.8
2018-Apr-16 08:00N 51°10' E 006°48'2 4.8
2018-Apr-16 07:30N 51°11' E 006°44'3 5.5
2018-Apr-16 07:00N 51°14' E 006°43'2 3.5
2018-Apr-16 06:30N 51°12' E 006°42'0 0.0
2018-Apr-16 06:00N 51°12' E 006°42'0 0.0
2018-Apr-16 05:30N 51°12' E 006°42'0 0.0
2018-Apr-16 05:00N 51°12' E 006°42'0 0.0
2018-Apr-16 04:30N 51°12' E 006°42'0 0.0
2018-Apr-16 04:00N 51°12' E 006°42'0 0.0
2018-Apr-16 03:30N 51°12' E 006°42'0 0.0
2018-Apr-16 03:00N 51°12' E 006°42'0 0.0
2018-Apr-16 02:30N 51°12' E 006°42'0 0.0
2018-Apr-16 02:00N 51°12' E 006°42'0 0.0
2018-Apr-16 01:30N 51°12' E 006°42'0 0.0
2018-Apr-16 01:00N 51°12' E 006°42'0 0.0
2018-Apr-16 00:30N 51°12' E 006°42'0 0.0
2018-Apr-16 00:00N 51°12' E 006°42'0 0.0
2018-Apr-15 23:30N 51°12' E 006°42'0 0.0
2018-Apr-15 23:00N 51°12' E 006°42'0 0.0
2018-Apr-15 22:30N 51°12' E 006°42'0 0.0
2018-Apr-15 22:00N 51°12' E 006°42'0 0.0
2018-Apr-15 21:30N 51°12' E 006°42'0 0.0
2018-Apr-15 21:00N 51°12' E 006°42'0 0.0
2018-Apr-15 20:30N 51°12' E 006°42'0 0.0
2018-Apr-15 20:00N 51°12' E 006°42'0 0.0
2018-Apr-15 19:30N 51°12' E 006°42'0 0.0
2018-Apr-15 18:57N 51°12' E 006°42'0 0.0
2018-Apr-15 18:30N 51°12' E 006°42'0 0.0
2018-Apr-15 18:00N 51°12' E 006°42'0 0.2
2018-Apr-15 17:30N 51°12' E 006°42'0 0.7
2018-Apr-15 17:00N 51°13' E 006°41'0 0.9
2018-Apr-15 16:30N 51°12' E 006°42'0 0.0
2018-Apr-15 16:00N 51°12' E 006°42'0 0.0
2018-Apr-15 15:30N 51°12' E 006°42'0 0.0
2018-Apr-15 15:00N 51°12' E 006°42'0 0.0
2018-Apr-15 14:30N 51°12' E 006°42'0 0.0
2018-Apr-15 14:00N 51°12' E 006°42'0 0.0
2018-Apr-15 13:30N 51°12' E 006°42'0 0.0
2018-Apr-15 13:00N 51°12' E 006°42'0 0.0
2018-Apr-15 12:30N 51°12' E 006°42'0 0.0
2018-Apr-15 12:00N 51°12' E 006°42'0 0.0
2018-Apr-15 11:30N 51°12' E 006°42'0 0.0
2018-Apr-15 11:00N 51°12' E 006°42'0 0.0
2018-Apr-15 10:30N 51°12' E 006°42'0 0.0
2018-Apr-15 10:00N 51°12' E 006°42'0 0.0
2018-Apr-15 09:30N 51°12' E 006°42'0 0.0
2018-Apr-15 09:00N 51°12' E 006°42'0 0.0
2018-Apr-15 08:30N 51°12' E 006°42'0 0.0
2018-Apr-15 08:00N 51°12' E 006°42'0 0.0
2018-Apr-15 07:30N 51°12' E 006°42'0 0.0
2018-Apr-15 07:00N 51°12' E 006°42'0 0.0
2018-Apr-15 06:30N 51°12' E 006°42'0 0.1
2018-Apr-15 06:00N 51°12' E 006°42'0 0.0
2018-Apr-15 05:30N 51°12' E 006°42'0 0.0
2018-Apr-15 05:00N 51°12' E 006°42'0 0.0
2018-Apr-15 04:30N 51°12' E 006°42'0 0.0
2018-Apr-15 04:00N 51°12' E 006°42'0 0.0
2018-Apr-15 03:30N 51°12' E 006°42'0 0.0
2018-Apr-15 03:00N 51°12' E 006°42'0 0.0
2018-Apr-15 02:30N 51°12' E 006°42'0 0.0
2018-Apr-15 02:00N 51°12' E 006°42'0 0.0
2018-Apr-15 01:30N 51°12' E 006°42'0 0.0
2018-Apr-15 01:00N 51°12' E 006°42'0 0.0
2018-Apr-15 00:30N 51°12' E 006°42'0 0.0
2018-Apr-15 00:00N 51°12' E 006°42'0 0.0
2018-Apr-14 23:30N 51°12' E 006°42'0 0.0
2018-Apr-14 23:00N 51°12' E 006°42'0 0.0
2018-Apr-14 22:30N 51°12' E 006°42'0 0.0
2018-Apr-14 22:00N 51°12' E 006°42'0 0.0
2018-Apr-14 21:30N 51°12' E 006°42'0 0.0
2018-Apr-14 21:00N 51°12' E 006°42'0 0.0
2018-Apr-14 20:30N 51°12' E 006°42'0 0.0
2018-Apr-14 20:00N 51°12' E 006°42'0 0.0
2018-Apr-14 19:30N 51°12' E 006°42'0 0.0
2018-Apr-14 19:00N 51°12' E 006°42'0 0.0
2018-Apr-14 18:30N 51°12' E 006°42'0 0.0
2018-Apr-14 18:00N 51°12' E 006°42'1 1.5
2018-Apr-14 17:30N 51°13' E 006°42'0 0.0
2018-Apr-14 17:00N 51°13' E 006°42'0 0.0
2018-Apr-14 16:30N 51°13' E 006°42'0 0.0
2018-Apr-14 16:00N 51°13' E 006°42'0 0.0
2018-Apr-14 15:30N 51°13' E 006°42'0 0.0
2018-Apr-14 15:00N 51°13' E 006°42'0 0.0
2018-Apr-14 14:30N 51°13' E 006°42'0 0.0
2018-Apr-14 14:00N 51°13' E 006°42'0 0.0
2018-Apr-14 13:30N 51°13' E 006°42'0 0.0
2018-Apr-14 13:00N 51°13' E 006°42'0 0.0
2018-Apr-14 12:30N 51°13' E 006°42'0 0.0
2018-Apr-14 12:00N 51°13' E 006°42'0 0.0
2018-Apr-14 11:30N 51°13' E 006°42'0 0.0
2018-Apr-14 11:00N 51°13' E 006°42'0 0.0
2018-Apr-14 10:30N 51°13' E 006°42'0 0.0
2018-Apr-14 10:00N 51°13' E 006°42'0 0.0
2018-Apr-14 09:30N 51°13' E 006°42'0 0.0
2018-Apr-14 09:00N 51°13' E 006°42'0 0.0
2018-Apr-14 08:30N 51°13' E 006°42'0 0.0
2018-Apr-14 08:00N 51°13' E 006°42'0 0.0
2018-Apr-14 07:30N 51°13' E 006°42'0 0.0
2018-Apr-14 07:00N 51°13' E 006°42'0 0.0
2018-Apr-14 06:30N 51°13' E 006°42'0 0.0
2018-Apr-14 06:00N 51°13' E 006°42'0 0.0
2018-Apr-14 05:30N 51°13' E 006°42'0 0.0
2018-Apr-14 05:00N 51°13' E 006°42'0 0.0
2018-Apr-14 04:30N 51°13' E 006°42'0 0.0
2018-Apr-14 04:00N 51°13' E 006°42'0 0.0
2018-Apr-14 03:30N 51°13' E 006°42'0 0.0
2018-Apr-14 03:00N 51°13' E 006°42'0 0.0
2018-Apr-14 02:30N 51°13' E 006°42'0 0.0
2018-Apr-14 02:00N 51°13' E 006°42'0 0.0
2018-Apr-14 01:30N 51°13' E 006°42'0 0.0
2018-Apr-14 01:00N 51°13' E 006°42'0 0.0
2018-Apr-14 00:30N 51°13' E 006°42'0 0.0
2018-Apr-14 00:00N 51°13' E 006°42'0 0.0
2018-Apr-13 23:30N 51°13' E 006°42'0 0.0
2018-Apr-13 23:00N 51°13' E 006°42'0 0.0
2018-Apr-13 22:30N 51°13' E 006°42'0 0.0
2018-Apr-13 22:00N 51°13' E 006°42'0 0.0
2018-Apr-13 21:30N 51°13' E 006°42'0 0.0
2018-Apr-13 21:00N 51°13' E 006°42'0 0.0
2018-Apr-13 20:30N 51°13' E 006°42'0 0.0
2018-Apr-13 20:00N 51°13' E 006°42'0 0.0
2018-Apr-13 19:30N 51°13' E 006°42'0 0.0
2018-Apr-13 19:00N 51°13' E 006°42'0 0.0
2018-Apr-13 18:30N 51°13' E 006°42'0 0.0
2018-Apr-13 18:00N 51°13' E 006°42'0 0.0
2018-Apr-13 17:30N 51°13' E 006°42'0 0.0
2018-Apr-13 17:00N 51°13' E 006°42'0 0.0
2018-Apr-13 16:30N 51°13' E 006°42'0 0.0
2018-Apr-13 16:00N 51°13' E 006°42'0 0.0
2018-Apr-13 15:30N 51°13' E 006°42'0 0.0
2018-Apr-13 15:00N 51°13' E 006°42'0 0.0
2018-Apr-13 14:30N 51°13' E 006°42'0 0.0
2018-Apr-13 14:00N 51°13' E 006°42'0 0.0
2018-Apr-13 13:30N 51°13' E 006°42'0 0.0
2018-Apr-13 13:00N 51°13' E 006°42'0 0.0
2018-Apr-13 12:30N 51°13' E 006°42'0 0.0
2018-Apr-13 12:00N 51°13' E 006°42'0 0.0
2018-Apr-13 11:30N 51°13' E 006°42'0 0.0
2018-Apr-13 11:00N 51°13' E 006°42'0 0.0
2018-Apr-13 10:30N 51°13' E 006°42'0 0.0
2018-Apr-13 10:00N 51°13' E 006°42'0 0.0
2018-Apr-13 09:30N 51°13' E 006°42'0 0.0
2018-Apr-13 09:00N 51°13' E 006°42'0 0.0
2018-Apr-13 08:30N 51°13' E 006°42'0 0.0
2018-Apr-13 08:00N 51°13' E 006°42'0 0.0
2018-Apr-13 07:30N 51°13' E 006°42'0 0.0
2018-Apr-13 07:00N 51°13' E 006°42'0 0.0
2018-Apr-13 06:30N 51°13' E 006°42'0 0.0
2018-Apr-13 06:00N 51°13' E 006°42'0 0.0
2018-Apr-13 05:30N 51°13' E 006°42'0 0.0
2018-Apr-13 05:00N 51°13' E 006°42'0 0.0
2018-Apr-13 04:30N 51°13' E 006°42'0 0.0
2018-Apr-13 04:00N 51°13' E 006°42'0 0.0
2018-Apr-13 03:30N 51°13' E 006°42'0 0.0
2018-Apr-13 03:00N 51°13' E 006°42'0 0.0
2018-Apr-13 02:30N 51°13' E 006°42'0 0.0
2018-Apr-13 02:00N 51°13' E 006°42'0 0.0
2018-Apr-13 01:30N 51°13' E 006°42'0 0.0
2018-Apr-13 01:00N 51°13' E 006°42'0 0.0
2018-Apr-13 00:30N 51°13' E 006°42'0 0.0
2018-Apr-13 00:00N 51°13' E 006°42'0 0.0
2018-Apr-12 23:30N 51°13' E 006°42'0 0.0
2018-Apr-12 23:00N 51°13' E 006°42'0 0.0
2018-Apr-12 22:30N 51°13' E 006°42'0 0.0
2018-Apr-12 22:00N 51°13' E 006°42'0 0.0
2018-Apr-12 21:30N 51°13' E 006°42'0 0.0
2018-Apr-12 21:00N 51°13' E 006°42'0 0.8
2018-Apr-12 20:30N 51°13' E 006°42'1 1.4
2018-Apr-12 20:00N 51°13' E 006°43'3 5.9
2018-Apr-12 19:30N 51°11' E 006°45'3 6.2
2018-Apr-12 19:00N 51°09' E 006°49'3 5.2
2018-Apr-12 18:30N 51°07' E 006°52'3 6.4
2018-Apr-12 18:00N 51°04' E 006°54'4 8.9
2018-Apr-12 17:30N 51°01' E 006°58'3 6.8
2018-Apr-12 17:00N 50°57' E 006°58'4 8.0
2018-Apr-12 16:30N 50°54' E 007°01'3 5.6
2018-Apr-12 16:00N 50°51' E 006°60'4 7.1
2018-Apr-12 15:30N 50°48' E 007°02'5 9.1
2018-Apr-12 15:00N 50°44' E 007°07'4 8.8
2018-Apr-12 14:30N 50°41' E 007°11'5 9.4
2018-Apr-12 14:00N 50°36' E 007°13'4 8.2
2018-Apr-12 13:30N 50°33' E 007°17'  
2018-Apr-06 21:52N 50°29' E 007°20'2 4.7
2018-Apr-06 21:30N 50°31' E 007°18'2 4.4
2018-Apr-06 21:00N 50°33' E 007°17'3 4.5
2018-Apr-06 20:24N 50°35' E 007°14'2 4.3
2018-Apr-06 20:00N 50°36' E 007°13'3 5.1
2018-Apr-06 19:30N 50°39' E 007°13'2 4.4
2018-Apr-06 19:00N 50°41' E 007°11'2 4.7
2018-Apr-06 18:30N 50°43' E 007°10'2 4.6
2018-Apr-06 18:00N 50°44' E 007°07'  
Track history (hours):
 
Tides and Currents Weather Stations Pressure Air Temp Water Temp Dewpoint Dewpoint Depression Visibility Wind Speed Wind Dir Waves Ship Positions

Love Boat

Last reported at 2018-Apr-16 17:46 UTC. Time now 2018-Apr-21 09:54 UTC.
Position N 50°28' E 007°21'.

Length 110 m.

Type: Ship. MMSI: 205386190.

Date/timePositionNaut miles runAvg speedWind from/ knotsBaromVisibWave heightAir tempDewpointWater temp
2018-Apr-16 17:46N 50°28' E 007°21'2 5.9
2018-Apr-16 17:30N 50°29' E 007°20'3 6.1
2018-Apr-16 16:59N 50°32' E 007°17'3 5.8
2018-Apr-16 16:26N 50°35' E 007°14'2 5.9
2018-Apr-16 16:00N 50°37' E 007°13'3 6.0
2018-Apr-16 15:30N 50°40' E 007°12'3 6.2
2018-Apr-16 15:00N 50°43' E 007°10'3 5.9
2018-Apr-16 14:30N 50°45' E 007°06'3 6.0
2018-Apr-16 14:00N 50°47' E 007°03'3 5.7
2018-Apr-16 13:30N 50°49' E 007°01'2 3.6
2018-Apr-16 13:00N 50°51' E 007°00'3 5.7
2018-Apr-16 12:30N 50°53' E 007°03'3 5.3
2018-Apr-16 12:00N 50°54' E 006°59'3 6.1
2018-Apr-16 11:30N 50°57' E 006°58'2 4.4
2018-Apr-16 11:00N 50°59' E 006°58'3 5.6
2018-Apr-16 10:30N 51°02' E 006°57'3 6.0
2018-Apr-16 10:00N 51°04' E 006°54'2 3.7
2018-Apr-16 09:30N 51°06' E 006°52'2 4.8
2018-Apr-16 09:00N 51°08' E 006°51'2 3.4
2018-Apr-16 08:30N 51°09' E 006°50'1 2.8
2018-Apr-16 08:00N 51°10' E 006°48'2 4.8
2018-Apr-16 07:30N 51°11' E 006°44'3 5.5
2018-Apr-16 07:00N 51°14' E 006°43'2 3.5
2018-Apr-16 06:30N 51°12' E 006°42'0 0.0
2018-Apr-16 06:00N 51°12' E 006°42'0 0.0
2018-Apr-16 05:30N 51°12' E 006°42'0 0.0
2018-Apr-16 05:00N 51°12' E 006°42'0 0.0
2018-Apr-16 04:30N 51°12' E 006°42'0 0.0
2018-Apr-16 04:00N 51°12' E 006°42'0 0.0
2018-Apr-16 03:30N 51°12' E 006°42'0 0.0
2018-Apr-16 03:00N 51°12' E 006°42'0 0.0
2018-Apr-16 02:30N 51°12' E 006°42'0 0.0
2018-Apr-16 02:00N 51°12' E 006°42'0 0.0
2018-Apr-16 01:30N 51°12' E 006°42'0 0.0
2018-Apr-16 01:00N 51°12' E 006°42'0 0.0
2018-Apr-16 00:30N 51°12' E 006°42'0 0.0
2018-Apr-16 00:00N 51°12' E 006°42'0 0.0
2018-Apr-15 23:30N 51°12' E 006°42'0 0.0
2018-Apr-15 23:00N 51°12' E 006°42'0 0.0
2018-Apr-15 22:30N 51°12' E 006°42'0 0.0
2018-Apr-15 22:00N 51°12' E 006°42'0 0.0
2018-Apr-15 21:30N 51°12' E 006°42'0 0.0
2018-Apr-15 21:00N 51°12' E 006°42'0 0.0
2018-Apr-15 20:30N 51°12' E 006°42'0 0.0
2018-Apr-15 20:00N 51°12' E 006°42'0 0.0
2018-Apr-15 19:30N 51°12' E 006°42'0 0.0
2018-Apr-15 18:57N 51°12' E 006°42'0 0.0
2018-Apr-15 18:30N 51°12' E 006°42'0 0.0
2018-Apr-15 18:00N 51°12' E 006°42'0 0.2
2018-Apr-15 17:30N 51°12' E 006°42'0 0.7
2018-Apr-15 17:00N 51°13' E 006°41'0 0.9
2018-Apr-15 16:30N 51°12' E 006°42'0 0.0
2018-Apr-15 16:00N 51°12' E 006°42'0 0.0
2018-Apr-15 15:30N 51°12' E 006°42'0 0.0
2018-Apr-15 15:00N 51°12' E 006°42'0 0.0
2018-Apr-15 14:30N 51°12' E 006°42'0 0.0
2018-Apr-15 14:00N 51°12' E 006°42'0 0.0
2018-Apr-15 13:30N 51°12' E 006°42'0 0.0
2018-Apr-15 13:00N 51°12' E 006°42'0 0.0
2018-Apr-15 12:30N 51°12' E 006°42'0 0.0
2018-Apr-15 12:00N 51°12' E 006°42'0 0.0
2018-Apr-15 11:30N 51°12' E 006°42'0 0.0
2018-Apr-15 11:00N 51°12' E 006°42'0 0.0
2018-Apr-15 10:30N 51°12' E 006°42'0 0.0
2018-Apr-15 10:00N 51°12' E 006°42'0 0.0
2018-Apr-15 09:30N 51°12' E 006°42'0 0.0
2018-Apr-15 09:00N 51°12' E 006°42'0 0.0
2018-Apr-15 08:30N 51°12' E 006°42'0 0.0
2018-Apr-15 08:00N 51°12' E 006°42'0 0.0
2018-Apr-15 07:30N 51°12' E 006°42'0 0.0
2018-Apr-15 07:00N 51°12' E 006°42'0 0.0
2018-Apr-15 06:30N 51°12' E 006°42'0 0.1
2018-Apr-15 06:00N 51°12' E 006°42'0 0.0
2018-Apr-15 05:30N 51°12' E 006°42'0 0.0
2018-Apr-15 05:00N 51°12' E 006°42'0 0.0
2018-Apr-15 04:30N 51°12' E 006°42'0 0.0
2018-Apr-15 04:00N 51°12' E 006°42'0 0.0
2018-Apr-15 03:30N 51°12' E 006°42'0 0.0
2018-Apr-15 03:00N 51°12' E 006°42'0 0.0
2018-Apr-15 02:30N 51°12' E 006°42'0 0.0
2018-Apr-15 02:00N 51°12' E 006°42'0 0.0
2018-Apr-15 01:30N 51°12' E 006°42'0 0.0
2018-Apr-15 01:00N 51°12' E 006°42'0 0.0
2018-Apr-15 00:30N 51°12' E 006°42'0 0.0
2018-Apr-15 00:00N 51°12' E 006°42'0 0.0
2018-Apr-14 23:30N 51°12' E 006°42'0 0.0
2018-Apr-14 23:00N 51°12' E 006°42'0 0.0
2018-Apr-14 22:30N 51°12' E 006°42'0 0.0
2018-Apr-14 22:00N 51°12' E 006°42'0 0.0
2018-Apr-14 21:30N 51°12' E 006°42'0 0.0
2018-Apr-14 21:00N 51°12' E 006°42'0 0.0
2018-Apr-14 20:30N 51°12' E 006°42'0 0.0
2018-Apr-14 20:00N 51°12' E 006°42'0 0.0
2018-Apr-14 19:30N 51°12' E 006°42'0 0.0
2018-Apr-14 19:00N 51°12' E 006°42'0 0.0
2018-Apr-14 18:30N 51°12' E 006°42'0 0.0
2018-Apr-14 18:00N 51°12' E 006°42'1 1.5
2018-Apr-14 17:30N 51°13' E 006°42'0 0.0
2018-Apr-14 17:00N 51°13' E 006°42'0 0.0
2018-Apr-14 16:30N 51°13' E 006°42'0 0.0
2018-Apr-14 16:00N 51°13' E 006°42'0 0.0
2018-Apr-14 15:30N 51°13' E 006°42'0 0.0
2018-Apr-14 15:00N 51°13' E 006°42'0 0.0
2018-Apr-14 14:30N 51°13' E 006°42'0 0.0
2018-Apr-14 14:00N 51°13' E 006°42'0 0.0
2018-Apr-14 13:30N 51°13' E 006°42'0 0.0
2018-Apr-14 13:00N 51°13' E 006°42'0 0.0
2018-Apr-14 12:30N 51°13' E 006°42'0 0.0
2018-Apr-14 12:00N 51°13' E 006°42'0 0.0
2018-Apr-14 11:30N 51°13' E 006°42'0 0.0
2018-Apr-14 11:00N 51°13' E 006°42'0 0.0
2018-Apr-14 10:30N 51°13' E 006°42'0 0.0
2018-Apr-14 10:00N 51°13' E 006°42'0 0.0
2018-Apr-14 09:30N 51°13' E 006°42'0 0.0
2018-Apr-14 09:00N 51°13' E 006°42'0 0.0
2018-Apr-14 08:30N 51°13' E 006°42'0 0.0
2018-Apr-14 08:00N 51°13' E 006°42'0 0.0
2018-Apr-14 07:30N 51°13' E 006°42'0 0.0
2018-Apr-14 07:00N 51°13' E 006°42'0 0.0
2018-Apr-14 06:30N 51°13' E 006°42'0 0.0
2018-Apr-14 06:00N 51°13' E 006°42'0 0.0
2018-Apr-14 05:30N 51°13' E 006°42'0 0.0
2018-Apr-14 05:00N 51°13' E 006°42'0 0.0
2018-Apr-14 04:30N 51°13' E 006°42'0 0.0
2018-Apr-14 04:00N 51°13' E 006°42'0 0.0
2018-Apr-14 03:30N 51°13' E 006°42'0 0.0
2018-Apr-14 03:00N 51°13' E 006°42'0 0.0
2018-Apr-14 02:30N 51°13' E 006°42'0 0.0
2018-Apr-14 02:00N 51°13' E 006°42'0 0.0
2018-Apr-14 01:30N 51°13' E 006°42'0 0.0
2018-Apr-14 01:00N 51°13' E 006°42'0 0.0
2018-Apr-14 00:30N 51°13' E 006°42'0 0.0
2018-Apr-14 00:00N 51°13' E 006°42'0 0.0
2018-Apr-13 23:30N 51°13' E 006°42'0 0.0
2018-Apr-13 23:00N 51°13' E 006°42'0 0.0
2018-Apr-13 22:30N 51°13' E 006°42'0 0.0
2018-Apr-13 22:00N 51°13' E 006°42'0 0.0
2018-Apr-13 21:30N 51°13' E 006°42'0 0.0
2018-Apr-13 21:00N 51°13' E 006°42'0 0.0
2018-Apr-13 20:30N 51°13' E 006°42'0 0.0
2018-Apr-13 20:00N 51°13' E 006°42'0 0.0
2018-Apr-13 19:30N 51°13' E 006°42'0 0.0
2018-Apr-13 19:00N 51°13' E 006°42'0 0.0
2018-Apr-13 18:30N 51°13' E 006°42'0 0.0
2018-Apr-13 18:00N 51°13' E 006°42'0 0.0
2018-Apr-13 17:30N 51°13' E 006°42'0 0.0
2018-Apr-13 17:00N 51°13' E 006°42'0 0.0
2018-Apr-13 16:30N 51°13' E 006°42'0 0.0
2018-Apr-13 16:00N 51°13' E 006°42'0 0.0
2018-Apr-13 15:30N 51°13' E 006°42'0 0.0
2018-Apr-13 15:00N 51°13' E 006°42'0 0.0
2018-Apr-13 14:30N 51°13' E 006°42'0 0.0
2018-Apr-13 14:00N 51°13' E 006°42'0 0.0
2018-Apr-13 13:30N 51°13' E 006°42'0 0.0
2018-Apr-13 13:00N 51°13' E 006°42'0 0.0
2018-Apr-13 12:30N 51°13' E 006°42'0 0.0
2018-Apr-13 12:00N 51°13' E 006°42'0 0.0
2018-Apr-13 11:30N 51°13' E 006°42'0 0.0
2018-Apr-13 11:00N 51°13' E 006°42'0 0.0
2018-Apr-13 10:30N 51°13' E 006°42'0 0.0
2018-Apr-13 10:00N 51°13' E 006°42'0 0.0
2018-Apr-13 09:30N 51°13' E 006°42'0 0.0
2018-Apr-13 09:00N 51°13' E 006°42'0 0.0
2018-Apr-13 08:30N 51°13' E 006°42'0 0.0
2018-Apr-13 08:00N 51°13' E 006°42'0 0.0
2018-Apr-13 07:30N 51°13' E 006°42'0 0.0
2018-Apr-13 07:00N 51°13' E 006°42'0 0.0
2018-Apr-13 06:30N 51°13' E 006°42'0 0.0
2018-Apr-13 06:00N 51°13' E 006°42'0 0.0
2018-Apr-13 05:30N 51°13' E 006°42'0 0.0
2018-Apr-13 05:00N 51°13' E 006°42'0 0.0
2018-Apr-13 04:30N 51°13' E 006°42'0 0.0
2018-Apr-13 04:00N 51°13' E 006°42'0 0.0
2018-Apr-13 03:30N 51°13' E 006°42'0 0.0
2018-Apr-13 03:00N 51°13' E 006°42'0 0.0
2018-Apr-13 02:30N 51°13' E 006°42'0 0.0
2018-Apr-13 02:00N 51°13' E 006°42'0 0.0
2018-Apr-13 01:30N 51°13' E 006°42'0 0.0
2018-Apr-13 01:00N 51°13' E 006°42'0 0.0
2018-Apr-13 00:30N 51°13' E 006°42'0 0.0
2018-Apr-13 00:00N 51°13' E 006°42'0 0.0
2018-Apr-12 23:30N 51°13' E 006°42'0 0.0
2018-Apr-12 23:00N 51°13' E 006°42'0 0.0
2018-Apr-12 22:30N 51°13' E 006°42'0 0.0
2018-Apr-12 22:00N 51°13' E 006°42'0 0.0
2018-Apr-12 21:30N 51°13' E 006°42'0 0.0
2018-Apr-12 21:00N 51°13' E 006°42'0 0.8
2018-Apr-12 20:30N 51°13' E 006°42'1 1.4
2018-Apr-12 20:00N 51°13' E 006°43'3 5.9
2018-Apr-12 19:30N 51°11' E 006°45'3 6.2
2018-Apr-12 19:00N 51°09' E 006°49'3 5.2
2018-Apr-12 18:30N 51°07' E 006°52'3 6.4
2018-Apr-12 18:00N 51°04' E 006°54'4 8.9
2018-Apr-12 17:30N 51°01' E 006°58'3 6.8
2018-Apr-12 17:00N 50°57' E 006°58'4 8.0
2018-Apr-12 16:30N 50°54' E 007°01'3 5.6
2018-Apr-12 16:00N 50°51' E 006°60'4 7.1
2018-Apr-12 15:30N 50°48' E 007°02'5 9.1
2018-Apr-12 15:00N 50°44' E 007°07'4 8.8
2018-Apr-12 14:30N 50°41' E 007°11'5 9.4
2018-Apr-12 14:00N 50°36' E 007°13'4 8.2
2018-Apr-12 13:30N 50°33' E 007°17'  
2018-Apr-06 21:52N 50°29' E 007°20'2 4.7
2018-Apr-06 21:30N 50°31' E 007°18'2 4.4
2018-Apr-06 21:00N 50°33' E 007°17'3 4.5
2018-Apr-06 20:24N 50°35' E 007°14'2 4.3
2018-Apr-06 20:00N 50°36' E 007°13'3 5.1
2018-Apr-06 19:30N 50°39' E 007°13'2 4.4
2018-Apr-06 19:00N 50°41' E 007°11'2 4.7
2018-Apr-06 18:30N 50°43' E 007°10'2 4.6
2018-Apr-06 18:00N 50°44' E 007°07'  

Dump ship's entire track history